createdAt,value
2023-04-22T00:00:09.767Z,100921.84
2023-04-22T00:02:37.496Z,100917.63
2023-04-22T00:05:06.655Z,100918.56
2023-04-22T00:07:34.582Z,100916.03
2023-04-22T00:10:01.828Z,100912.56
2023-04-22T00:12:29.978Z,100922.00
2023-04-22T00:14:57.935Z,100926.06
2023-04-22T00:17:25.652Z,100919.91
2023-04-22T00:19:54.696Z,100913.81
2023-04-22T00:22:27.013Z,100914.72
2023-04-22T00:24:54.941Z,100911.16
2023-04-22T00:27:22.440Z,100911.97
2023-04-22T00:29:49.986Z,100914.53
2023-04-22T00:32:17.509Z,100911.13
2023-04-22T00:34:45.597Z,100908.44
2023-04-22T00:37:14.157Z,100913.34
2023-04-22T00:39:42.097Z,100912.28
2023-04-22T00:42:10.446Z,100917.41
2023-04-22T00:44:38.148Z,100916.53
2023-04-22T00:47:05.495Z,100921.72
2023-04-22T00:49:33.332Z,100917.41
2023-04-22T00:52:01.353Z,100916.47
2023-04-22T00:54:28.965Z,100919.06
2023-04-22T00:57:00.136Z,100914.78
2023-04-22T00:59:28.307Z,100915.66
2023-04-22T01:01:56.472Z,100915.50
2023-04-22T01:04:24.889Z,100918.88
2023-04-22T01:06:55.554Z,100928.31
2023-04-22T01:09:22.793Z,100916.13
2023-04-22T01:11:50.455Z,100920.47
2023-04-22T01:14:19.470Z,100925.59
2023-04-22T01:16:46.712Z,100922.19
2023-04-22T01:19:14.906Z,100914.47
2023-04-22T01:21:42.675Z,100919.59
2023-04-22T01:24:10.509Z,100919.47
2023-04-22T01:26:38.178Z,100919.31
2023-04-22T01:29:06.705Z,100923.47
2023-04-22T01:31:33.500Z,100931.81
2023-04-22T01:34:01.428Z,100917.88
2023-04-22T01:36:28.954Z,100915.22
2023-04-22T01:38:57.493Z,100918.69
2023-04-22T01:41:25.242Z,100923.97
2023-04-22T01:43:54.720Z,100926.69
2023-04-22T01:46:22.383Z,100924.00
2023-04-22T01:48:53.304Z,100919.72
2023-04-22T01:51:21.063Z,100921.38
2023-04-22T01:53:48.578Z,100917.22
2023-04-22T01:56:21.825Z,100916.34
2023-04-22T01:58:49.786Z,100908.66
2023-04-22T02:01:17.893Z,100912.19
2023-04-22T02:03:45.872Z,100913.13
2023-04-22T02:06:14.147Z,100910.69
2023-04-22T02:08:42.188Z,100902.09
2023-04-22T02:11:10.238Z,100915.97
2023-04-22T02:13:38.628Z,100909.13
2023-04-22T02:16:07.798Z,100909.13
2023-04-22T02:18:36.073Z,100899.72
2023-04-22T02:21:03.811Z,100917.78
2023-04-22T02:23:32.000Z,100919.06
2023-04-22T02:25:59.075Z,100915.16
2023-04-22T02:28:26.909Z,100920.28
2023-04-22T02:30:54.908Z,100912.59
2023-04-22T02:33:23.296Z,100922.25
2023-04-22T02:35:51.958Z,100912.13
2023-04-22T02:38:20.157Z,100911.19
2023-04-22T02:40:48.323Z,100916.34
2023-04-22T02:43:16.537Z,100905.25
2023-04-22T02:45:44.946Z,100909.41
2023-04-22T02:48:12.673Z,100911.13
2023-04-22T02:50:40.626Z,100900.06
2023-04-22T02:53:09.254Z,100900.97
2023-04-22T02:55:37.076Z,100900.22
2023-04-22T02:58:04.871Z,100892.31
2023-04-22T03:00:32.880Z,100892.28
2023-04-22T03:03:01.183Z,100900.03
2023-04-22T03:05:29.839Z,100897.34
2023-04-22T03:07:58.018Z,100898.75
2023-04-22T03:10:26.156Z,100896.91
2023-04-22T03:12:55.127Z,100895.06
2023-04-22T03:15:22.846Z,100903.69
2023-04-22T03:17:50.660Z,100897.81
2023-04-22T03:20:18.792Z,100900.66
2023-04-22T03:22:46.818Z,100906.91
2023-04-22T03:25:14.439Z,100902.66
2023-04-22T03:27:42.548Z,100901.56
2023-04-22T03:30:12.039Z,100896.19
2023-04-22T03:32:40.116Z,100898.56
2023-04-22T03:35:09.934Z,100890.72
2023-04-22T03:37:37.746Z,100891.59
2023-04-22T03:40:09.791Z,100893.31
2023-04-22T03:42:37.946Z,100902.88
2023-04-22T03:45:08.474Z,100898.38
2023-04-22T03:47:36.099Z,100897.50
2023-04-22T03:50:04.361Z,100898.19
2023-04-22T03:52:32.413Z,100891.34
2023-04-22T03:55:00.372Z,100893.16
2023-04-22T03:57:32.288Z,100888.00
2023-04-22T03:59:59.930Z,100893.84
2023-04-22T04:02:27.576Z,100894.59
2023-04-22T04:04:55.794Z,100896.41
2023-04-22T04:07:24.012Z,100902.25
2023-04-22T04:09:52.070Z,100898.69
2023-04-22T04:12:20.145Z,100894.38
2023-04-22T04:14:48.089Z,100898.78
2023-04-22T04:17:15.712Z,100903.03
2023-04-22T04:19:43.730Z,100896.13
2023-04-22T04:22:11.444Z,100904.56
2023-04-22T04:24:44.854Z,100901.06
2023-04-22T04:27:12.678Z,100907.19
2023-04-22T04:29:41.573Z,100900.41
2023-04-22T04:32:10.172Z,100897.72
2023-04-22T04:34:37.974Z,100903.03
2023-04-22T04:37:05.599Z,100907.41
2023-04-22T04:39:33.762Z,100898.94
2023-04-22T04:42:01.394Z,100901.53
2023-04-22T04:44:31.832Z,100905.03
2023-04-22T04:46:59.963Z,100911.03
2023-04-22T04:49:27.851Z,100902.34
2023-04-22T04:51:56.068Z,100908.22
2023-04-22T04:54:24.447Z,100911.75
2023-04-22T04:56:52.446Z,100909.31
2023-04-22T04:59:20.520Z,100900.00
2023-04-22T05:01:48.526Z,100907.06
2023-04-22T05:04:16.854Z,100907.13
2023-04-22T05:06:44.945Z,100902.09
2023-04-22T05:09:12.913Z,100905.78
2023-04-22T05:11:40.597Z,100902.38
2023-04-22T05:14:08.699Z,100913.00
2023-04-22T05:16:36.352Z,100914.63
2023-04-22T05:19:08.578Z,100919.78
2023-04-22T05:21:36.654Z,100920.75
2023-04-22T05:24:05.387Z,100925.16
2023-04-22T05:26:33.004Z,100928.78
2023-04-22T05:29:00.772Z,100929.00
2023-04-22T05:31:29.250Z,100931.00
2023-04-22T05:33:57.336Z,100932.72
2023-04-22T05:36:25.345Z,100938.78
2023-04-22T05:38:53.428Z,100931.94
2023-04-22T05:41:21.417Z,100928.53
2023-04-22T05:43:48.937Z,100930.50
2023-04-22T05:46:20.172Z,100935.63
2023-04-22T05:48:48.865Z,100937.28
2023-04-22T05:51:16.032Z,100939.81
2023-04-22T05:53:44.192Z,100936.28
2023-04-22T05:56:12.811Z,100941.66
2023-04-22T05:58:40.763Z,100939.16
2023-04-22T06:01:08.797Z,100941.84
2023-04-22T06:03:36.893Z,100951.44
2023-04-22T06:06:06.314Z,100954.97
2023-04-22T06:08:34.349Z,100963.56
2023-04-22T06:11:02.199Z,100968.03
2023-04-22T06:13:33.167Z,100959.41
2023-04-22T06:15:59.931Z,100957.72
2023-04-22T06:18:28.477Z,100960.47
2023-04-22T06:20:56.799Z,100970.09
2023-04-22T06:23:24.955Z,100977.16
2023-04-22T06:25:52.740Z,100967.81
2023-04-22T06:28:20.330Z,100963.63
2023-04-22T06:30:48.347Z,100962.06
2023-04-22T06:33:16.361Z,100969.28
2023-04-22T06:35:44.607Z,100977.19
2023-04-22T06:38:12.023Z,100982.50
2023-04-22T06:40:40.256Z,100981.84
2023-04-22T06:43:08.362Z,100975.97
2023-04-22T06:45:36.205Z,100976.06
2023-04-22T06:48:03.873Z,100975.41
2023-04-22T06:50:32.170Z,100980.00
2023-04-22T06:53:02.931Z,100983.56
2023-04-22T06:55:30.813Z,100972.25
2023-04-22T06:57:58.514Z,100974.97
2023-04-22T07:00:26.152Z,100981.97
2023-04-22T07:02:54.327Z,100981.19
2023-04-22T07:05:21.580Z,100988.25
2023-04-22T07:07:49.671Z,100991.06
2023-04-22T07:10:17.270Z,100983.38
2023-04-22T07:12:45.408Z,100983.56
2023-04-22T07:15:12.968Z,100982.75
2023-04-22T07:17:40.225Z,100986.16
2023-04-22T07:20:10.520Z,100982.75
2023-04-22T07:22:38.377Z,100985.41
2023-04-22T07:25:07.755Z,100981.97
2023-04-22T07:27:44.184Z,100975.16
2023-04-22T07:30:14.318Z,100980.34
2023-04-22T07:32:53.606Z,100984.75
2023-04-22T07:35:28.725Z,100975.28
2023-04-22T07:37:56.326Z,100976.28
2023-04-22T07:40:28.841Z,100973.81
2023-04-22T07:43:13.117Z,100975.66
2023-04-22T07:45:47.010Z,100976.59
2023-04-22T07:48:15.264Z,100970.78
2023-04-22T07:50:43.511Z,100973.47
2023-04-22T07:53:10.958Z,100969.19
2023-04-22T07:55:38.595Z,100975.38
2023-04-22T07:58:06.892Z,100969.25
2023-04-22T08:00:35.656Z,100972.75
2023-04-22T08:03:03.571Z,100976.22
2023-04-22T08:05:31.356Z,100974.47
2023-04-22T08:07:59.476Z,100965.88
2023-04-22T08:10:28.055Z,100965.91
2023-04-22T08:12:55.798Z,100961.63
2023-04-22T08:15:23.409Z,100966.00
2023-04-22T08:17:51.511Z,100972.97
2023-04-22T08:20:19.740Z,100972.13
2023-04-22T08:22:47.564Z,100978.22
2023-04-22T08:25:16.339Z,100980.03
2023-04-22T08:27:43.904Z,100974.84
2023-04-22T08:30:12.723Z,100979.19
2023-04-22T08:32:40.396Z,100977.47
2023-04-22T08:35:10.058Z,100979.28
2023-04-22T08:37:37.688Z,100981.88
2023-04-22T08:40:08.234Z,100974.06
2023-04-22T08:42:36.217Z,100970.59
2023-04-22T08:45:06.731Z,100977.56
2023-04-22T08:47:34.930Z,100968.00
2023-04-22T08:50:06.498Z,100973.25
2023-04-22T08:52:34.178Z,100972.38
2023-04-22T08:55:02.123Z,100975.88
2023-04-22T08:57:29.613Z,100978.53
2023-04-22T09:00:00.823Z,100970.69
2023-04-22T09:02:28.344Z,100966.38
2023-04-22T09:04:56.422Z,100967.22
2023-04-22T09:07:25.428Z,100966.31
2023-04-22T09:09:54.001Z,100961.97
2023-04-22T09:12:21.701Z,100961.06
2023-04-22T09:14:49.837Z,100957.56
2023-04-22T09:17:18.949Z,100963.63
2023-04-22T09:19:47.173Z,100958.44
2023-04-22T09:22:16.214Z,100960.97
2023-04-22T09:25:21.800Z,100956.59
2023-04-22T09:27:52.193Z,100951.25
2023-04-22T09:30:24.117Z,100951.22
2023-04-22T09:33:14.815Z,100949.34
2023-04-22T09:35:42.535Z,100948.47
2023-04-22T09:38:11.211Z,100938.75
2023-04-22T09:40:41.370Z,100933.44
2023-04-22T09:43:09.562Z,100935.94
2023-04-22T09:45:39.209Z,100933.38
2023-04-22T09:48:11.479Z,100925.53
2023-04-22T09:50:40.242Z,100926.34
2023-04-22T09:53:08.578Z,100920.19
2023-04-22T09:55:37.924Z,100923.66
2023-04-22T09:58:29.790Z,100925.34
2023-04-22T10:01:03.684Z,100917.38
2023-04-22T10:03:31.917Z,100921.94
2023-04-22T10:06:00.170Z,100922.75
2023-04-22T10:08:31.076Z,100921.81
2023-04-22T10:10:58.673Z,100928.59
2023-04-22T10:13:26.501Z,100915.50
2023-04-22T10:15:54.394Z,100920.47
2023-04-22T10:18:29.211Z,100918.69
2023-04-22T10:20:57.744Z,100916.00
2023-04-22T10:23:25.235Z,100912.53
2023-04-22T10:25:56.654Z,100916.91
2023-04-22T10:28:25.142Z,100915.91
2023-04-22T10:30:53.169Z,100911.75
2023-04-22T10:33:34.013Z,100905.66
2023-04-22T10:36:17.973Z,100906.19
2023-04-22T10:38:51.486Z,100905.94
2023-04-22T10:41:27.210Z,100903.50
2023-04-22T10:44:21.734Z,100893.94
2023-04-22T10:46:52.681Z,100903.56
2023-04-22T10:49:23.554Z,100901.81
2023-04-22T10:51:55.793Z,100891.41
2023-04-22T10:54:31.422Z,100890.44
2023-04-22T10:57:08.638Z,100892.56
2023-04-22T10:59:50.232Z,100888.72
2023-04-22T11:02:19.637Z,100885.03
2023-04-22T11:04:47.998Z,100885.88
2023-04-22T11:07:20.771Z,100887.66
2023-04-22T11:10:07.129Z,100883.44
2023-04-22T11:12:39.849Z,100882.25
2023-04-22T11:15:15.896Z,100876.84
2023-04-22T11:17:44.337Z,100878.97
2023-04-22T11:20:15.208Z,100881.03
2023-04-22T11:22:43.346Z,100880.09
2023-04-22T11:25:10.812Z,100880.13
2023-04-22T11:27:38.519Z,100867.00
2023-04-22T11:30:21.915Z,100871.97
2023-04-22T11:32:51.256Z,100871.75
2023-04-22T11:35:32.325Z,100869.34
2023-04-22T11:38:01.651Z,100867.00
2023-04-22T11:40:36.922Z,100868.25
2023-04-22T11:43:08.920Z,100867.13
2023-04-22T11:45:37.751Z,100861.31
2023-04-22T11:48:07.017Z,100867.69
2023-04-22T11:50:39.093Z,100856.41
2023-04-22T11:53:15.552Z,100853.28
2023-04-22T11:55:43.615Z,100844.88
2023-04-22T11:58:13.254Z,100847.59
2023-04-22T12:00:40.869Z,100848.19
2023-04-22T12:03:15.452Z,100840.00
2023-04-22T12:06:06.543Z,100841.53
2023-04-22T12:09:01.559Z,100839.44
2023-04-22T12:11:29.218Z,100845.06
2023-04-22T12:13:57.216Z,100841.47
2023-04-22T12:16:25.127Z,100831.41
2023-04-22T12:18:53.400Z,100843.75
2023-04-22T12:21:22.230Z,100828.91
2023-04-22T12:23:53.118Z,100835.22
2023-04-22T12:26:25.356Z,100836.56
2023-04-22T12:28:53.509Z,100838.16
2023-04-22T12:31:21.608Z,100828.56
2023-04-22T12:33:49.664Z,100832.56
2023-04-22T12:36:17.734Z,100830.56
2023-04-22T12:38:45.247Z,100820.59
2023-04-22T12:41:13.514Z,100826.88
2023-04-22T12:43:41.323Z,100834.03
2023-04-22T12:46:09.246Z,100824.09
2023-04-22T12:48:56.942Z,100826.56
2023-04-22T12:51:25.059Z,100824.78
2023-04-22T12:53:53.637Z,100816.75
2023-04-22T12:56:21.243Z,100816.00
2023-04-22T12:58:48.952Z,100811.22
2023-04-22T13:01:16.529Z,100814.03
2023-04-22T13:03:44.628Z,100810.09
2023-04-22T13:06:12.367Z,100804.50
2023-04-22T13:08:39.962Z,100805.25
2023-04-22T13:11:08.027Z,100803.53
2023-04-22T13:13:35.774Z,100799.97
2023-04-22T13:16:03.848Z,100797.13
2023-04-22T13:18:31.880Z,100794.00
2023-04-22T13:21:02.828Z,100799.19
2023-04-22T13:23:31.090Z,100798.69
2023-04-22T13:25:59.042Z,100793.25
2023-04-22T13:28:27.250Z,100789.53
2023-04-22T13:30:55.940Z,100795.31
2023-04-22T13:33:23.552Z,100789.69
2023-04-22T13:35:51.702Z,100785.13
2023-04-22T13:38:19.509Z,100782.00
2023-04-22T13:40:47.734Z,100778.47
2023-04-22T13:43:15.786Z,100773.09
2023-04-22T13:45:43.930Z,100770.06
2023-04-22T13:48:12.337Z,100775.00
2023-04-22T13:50:42.780Z,100767.53
2023-04-22T13:53:11.941Z,100763.59
2023-04-22T13:55:39.663Z,100756.69
2023-04-22T13:58:07.777Z,100759.75
2023-04-22T14:00:36.065Z,100755.03
2023-04-22T14:03:04.109Z,100761.34
2023-04-22T14:05:32.272Z,100753.53
2023-04-22T14:08:00.280Z,100749.34
2023-04-22T14:10:28.701Z,100751.03
2023-04-22T14:12:56.999Z,100746.69
2023-04-22T14:15:29.134Z,100743.19
2023-04-22T14:17:57.249Z,100747.28
2023-04-22T14:20:27.874Z,100745.44
2023-04-22T14:22:56.083Z,100750.66
2023-04-22T14:25:23.866Z,100746.38
2023-04-22T14:27:51.501Z,100742.13
2023-04-22T14:30:20.519Z,100739.75
2023-04-22T14:32:51.809Z,100737.94
2023-04-22T14:35:19.797Z,100733.47
2023-04-22T14:37:47.910Z,100722.66
2023-04-22T14:40:15.663Z,100735.84
2023-04-22T14:42:43.290Z,100740.25
2023-04-22T14:45:14.711Z,100728.22
2023-04-22T14:47:42.746Z,100726.38
2023-04-22T14:50:12.613Z,100725.47
2023-04-22T14:52:40.377Z,100731.13
2023-04-22T14:55:19.295Z,100725.81
2023-04-22T14:57:51.190Z,100732.94
2023-04-22T15:00:19.546Z,100724.31
2023-04-22T15:02:47.226Z,100727.53
2023-04-22T15:05:15.066Z,100718.72
2023-04-22T15:07:45.487Z,100725.63
2023-04-22T15:10:14.462Z,100729.50
2023-04-22T15:12:42.554Z,100726.56
2023-04-22T15:15:16.230Z,100719.97
2023-04-22T15:17:43.977Z,100728.41
2023-04-22T15:20:13.295Z,100722.53
2023-04-22T15:22:44.043Z,100721.66
2023-04-22T15:25:12.252Z,100717.38
2023-04-22T15:27:39.919Z,100715.59
2023-04-22T15:30:11.165Z,100725.75
2023-04-22T15:32:42.486Z,100723.19
2023-04-22T15:35:09.966Z,100723.88
2023-04-22T15:37:37.521Z,100720.28
2023-04-22T15:40:07.865Z,100714.66
2023-04-22T15:42:36.162Z,100715.69
2023-04-22T15:45:03.965Z,100708.38
2023-04-22T15:47:32.040Z,100710.91
2023-04-22T15:50:06.459Z,100712.88
2023-04-22T15:52:35.089Z,100712.41
2023-04-22T15:55:02.657Z,100711.59
2023-04-22T15:57:34.494Z,100713.03
2023-04-22T16:00:12.982Z,100706.84
2023-04-22T16:02:41.100Z,100711.69
2023-04-22T16:05:09.736Z,100710.38
2023-04-22T16:07:37.660Z,100709.84
2023-04-22T16:10:06.851Z,100708.06
2023-04-22T16:12:34.972Z,100711.13
2023-04-22T16:15:03.099Z,100707.84
2023-04-22T16:17:31.346Z,100705.16
2023-04-22T16:19:59.644Z,100700.00
2023-04-22T16:22:27.814Z,100704.22
2023-04-22T16:24:55.886Z,100702.94
2023-04-22T16:27:23.870Z,100701.88
2023-04-22T16:29:51.803Z,100706.03
2023-04-22T16:32:19.801Z,100707.28
2023-04-22T16:34:47.938Z,100703.47
2023-04-22T16:37:16.272Z,100708.47
2023-04-22T16:39:43.887Z,100702.56
2023-04-22T16:42:11.736Z,100700.34
2023-04-22T16:44:39.709Z,100715.72
2023-04-22T16:47:07.756Z,100701.78
2023-04-22T16:49:35.452Z,100703.22
2023-04-22T16:52:03.966Z,100702.63
2023-04-22T16:54:31.984Z,100701.19
2023-04-22T16:57:00.047Z,100701.00
2023-04-22T16:59:28.126Z,100692.00
2023-04-22T17:01:57.405Z,100702.78
2023-04-22T17:04:25.567Z,100697.84
2023-04-22T17:06:53.725Z,100696.53
2023-04-22T17:09:21.779Z,100700.38
2023-04-22T17:11:49.895Z,100705.75
2023-04-22T17:14:17.917Z,100701.63
2023-04-22T17:16:45.932Z,100699.16
2023-04-22T17:19:14.021Z,100693.31
2023-04-22T17:21:42.036Z,100702.16
2023-04-22T17:24:10.074Z,100702.41
2023-04-22T17:26:38.001Z,100705.16
2023-04-22T17:29:08.922Z,100704.38
2023-04-22T17:31:36.535Z,100702.09
2023-04-22T17:34:04.310Z,100706.81
2023-04-22T17:36:32.057Z,100705.44
2023-04-22T17:38:59.795Z,100706.69
2023-04-22T17:41:28.080Z,100722.66
2023-04-22T17:43:57.895Z,100710.63
2023-04-22T17:46:27.813Z,100717.09
2023-04-22T17:48:56.085Z,100718.16
2023-04-22T17:51:23.636Z,100724.44
2023-04-22T17:53:52.783Z,100723.00
2023-04-22T17:56:20.414Z,100719.69
2023-04-22T17:58:48.515Z,100716.44
2023-04-22T18:01:15.798Z,100722.72
2023-04-22T18:03:43.992Z,100734.25
2023-04-22T18:06:12.392Z,100731.03
2023-04-22T18:08:40.618Z,100740.09
2023-04-22T18:11:08.441Z,100738.56
2023-04-22T18:13:35.705Z,100736.94
2023-04-22T18:16:03.691Z,100739.66
2023-04-22T18:18:31.798Z,100739.75
2023-04-22T18:21:00.904Z,100730.22
2023-04-22T18:23:32.907Z,100739.06
2023-04-22T18:26:00.912Z,100739.06
2023-04-22T18:28:29.033Z,100744.38
2023-04-22T18:30:56.679Z,100748.81
2023-04-22T18:33:24.311Z,100755.00
2023-04-22T18:35:52.299Z,100755.88
2023-04-22T18:38:20.164Z,100741.97
2023-04-22T18:40:48.131Z,100753.34
2023-04-22T18:43:15.893Z,100755.16
2023-04-22T18:45:43.969Z,100756.13
2023-04-22T18:48:12.199Z,100769.25
2023-04-22T18:50:40.304Z,100764.94
2023-04-22T18:53:08.378Z,100771.97
2023-04-22T18:55:36.532Z,100765.84
2023-04-22T18:58:04.222Z,100771.06
2023-04-22T19:00:35.376Z,100770.22
2023-04-22T19:03:03.700Z,100771.94
2023-04-22T19:05:31.415Z,100771.97
2023-04-22T19:07:59.501Z,100784.19
2023-04-22T19:10:27.066Z,100784.22
2023-04-22T19:12:55.206Z,100782.47
2023-04-22T19:15:22.939Z,100783.38
2023-04-22T19:17:59.597Z,100789.44
2023-04-22T19:20:27.750Z,100790.34
2023-04-22T19:22:55.643Z,100799.06
2023-04-22T19:25:24.662Z,100794.75
2023-04-22T19:27:52.226Z,100800.91
2023-04-22T19:30:20.076Z,100801.81
2023-04-22T19:32:48.247Z,100796.59
2023-04-22T19:35:21.935Z,100796.59
2023-04-22T19:37:49.594Z,100801.78
2023-04-22T19:40:18.595Z,100802.63
2023-04-22T19:42:46.834Z,100793.94
2023-04-22T19:45:14.311Z,100800.88
2023-04-22T19:47:43.464Z,100795.66
2023-04-22T19:50:12.912Z,100790.38
2023-04-22T19:52:41.125Z,100786.03
2023-04-22T19:55:10.004Z,100780.75
2023-04-22T19:57:38.714Z,100777.28
2023-04-22T20:00:11.095Z,100783.38
2023-04-22T20:02:39.420Z,100781.66
2023-04-22T20:05:08.582Z,100783.41
2023-04-22T20:07:36.406Z,100788.63
2023-04-22T20:10:07.229Z,100794.75
2023-04-22T20:12:36.336Z,100799.97
2023-04-22T20:15:06.034Z,100806.09
2023-04-22T20:17:38.555Z,100802.63
2023-04-22T20:20:14.638Z,100799.16
2023-04-22T20:22:42.734Z,100797.44
2023-04-22T20:25:33.765Z,100800.13
2023-04-22T20:28:02.376Z,100801.88
2023-04-22T20:30:30.698Z,100801.94
2023-04-22T20:32:58.722Z,100797.59
2023-04-22T20:35:28.689Z,100795.91
2023-04-22T20:37:58.887Z,100795.06
2023-04-22T20:40:27.054Z,100799.44
2023-04-22T20:42:54.876Z,100798.59
2023-04-22T20:45:22.452Z,100793.38
2023-04-22T20:47:50.078Z,100792.50
2023-04-22T20:50:19.223Z,100793.38
2023-04-22T20:52:47.507Z,100796.00
2023-04-22T20:55:16.000Z,100789.03
2023-04-22T20:57:43.741Z,100792.53
2023-04-22T21:00:13.433Z,100800.34
2023-04-22T21:02:41.100Z,100799.50
2023-04-22T21:05:12.250Z,100796.88
2023-04-22T21:07:48.728Z,100801.25
2023-04-22T21:10:19.224Z,100797.75
2023-04-22T21:12:47.864Z,100799.44
2023-04-22T21:15:17.510Z,100797.69
2023-04-22T21:17:51.668Z,100800.28
2023-04-22T21:20:20.342Z,100800.28
2023-04-22T21:22:48.495Z,100810.69
2023-04-22T21:25:18.886Z,100802.88
2023-04-22T21:27:55.417Z,100804.59
2023-04-22T21:30:30.430Z,100813.28
2023-04-22T21:32:58.469Z,100810.63
2023-04-22T21:35:25.668Z,100803.69
2023-04-22T21:37:54.349Z,100807.19
2023-04-22T21:40:38.654Z,100805.41
2023-04-22T21:43:06.296Z,100808.84
2023-04-22T21:45:42.041Z,100811.44
2023-04-22T21:48:17.042Z,100813.19
2023-04-22T21:50:44.595Z,100815.81
2023-04-22T21:53:11.253Z,100806.25
2023-04-22T21:55:39.463Z,100808.88
2023-04-22T21:58:07.116Z,100811.53
2023-04-22T22:00:34.519Z,100806.31
2023-04-22T22:03:02.833Z,100806.31
2023-04-22T22:05:31.384Z,100807.16
2023-04-22T22:07:59.580Z,100810.59
2023-04-22T22:10:27.789Z,100809.69
2023-04-22T22:12:55.940Z,100807.06
2023-04-22T22:15:24.385Z,100810.50
2023-04-22T22:17:52.129Z,100815.72
2023-04-22T22:20:22.853Z,100800.09
2023-04-22T22:22:50.897Z,100814.00
2023-04-22T22:25:18.493Z,100805.31
2023-04-22T22:27:47.049Z,100802.69
2023-04-22T22:30:18.746Z,100805.31
2023-04-22T22:32:46.913Z,100800.09
2023-04-22T22:35:14.335Z,100800.97
2023-04-22T22:37:42.386Z,100798.31
2023-04-22T22:40:11.332Z,100799.22
2023-04-22T22:42:39.838Z,100794.03
2023-04-22T22:45:10.707Z,100794.03
2023-04-22T22:47:38.349Z,100799.22
2023-04-22T22:50:07.744Z,100797.47
2023-04-22T22:52:36.869Z,100797.44
2023-04-22T22:55:06.018Z,100800.88
2023-04-22T22:57:33.793Z,100801.75
2023-04-22T23:00:01.848Z,100794.81
2023-04-22T23:02:29.855Z,100796.50
2023-04-22T23:04:58.174Z,100799.06
2023-04-22T23:07:30.746Z,100792.09
2023-04-22T23:09:58.931Z,100798.94
2023-04-22T23:12:26.879Z,100791.09
2023-04-22T23:14:54.909Z,100781.53
2023-04-22T23:17:22.681Z,100784.97
2023-04-22T23:19:52.075Z,100780.63
2023-04-22T23:22:19.885Z,100777.16
2023-04-22T23:24:49.480Z,100776.31
2023-04-22T23:27:18.092Z,100775.44
2023-04-22T23:29:47.131Z,100766.75
2023-04-22T23:32:16.415Z,100765.03
2023-04-22T23:34:46.118Z,100765.91
2023-04-22T23:37:14.824Z,100757.25
2023-04-22T23:39:42.660Z,100758.97
2023-04-22T23:42:10.951Z,100762.41
2023-04-22T23:44:39.105Z,100752.00
2023-04-22T23:47:07.688Z,100752.00
2023-04-22T23:49:35.366Z,100746.81
2023-04-22T23:52:04.020Z,100745.91
2023-04-22T23:54:32.968Z,100745.88
2023-04-22T23:57:02.811Z,100739.75
2023-04-22T23:59:31.889Z,100740.63
